createdAt,value
2023-04-12T00:00:43.470Z,2.50
2023-04-12T00:03:10.778Z,2.30
2023-04-12T00:05:37.978Z,2.23
2023-04-12T00:08:05.191Z,2.80
2023-04-12T00:10:32.283Z,2.13
2023-04-12T00:13:00.670Z,2.67
2023-04-12T00:15:28.292Z,2.20
2023-04-12T00:17:55.338Z,2.40
2023-04-12T00:20:22.427Z,2.50
2023-04-12T00:22:49.505Z,2.87
2023-04-12T00:25:16.521Z,2.17
2023-04-12T00:27:43.598Z,2.80
2023-04-12T00:30:12.490Z,3.00
2023-04-12T00:32:39.628Z,2.07
2023-04-12T00:35:07.205Z,2.73
2023-04-12T00:37:34.636Z,2.80
2023-04-12T00:40:01.869Z,2.47
2023-04-12T00:42:29.876Z,2.60
2023-04-12T00:44:56.922Z,2.67
2023-04-12T00:47:25.269Z,3.07
2023-04-12T00:49:53.181Z,2.90
2023-04-12T00:52:20.304Z,3.37
2023-04-12T00:54:47.680Z,2.80
2023-04-12T00:57:14.790Z,2.77
2023-04-12T00:59:41.906Z,2.53
2023-04-12T01:02:09.887Z,3.27
2023-04-12T01:04:38.319Z,3.77
2023-04-12T01:07:09.959Z,2.70
2023-04-12T01:09:40.501Z,3.10
2023-04-12T01:12:16.511Z,3.40
2023-04-12T01:14:47.449Z,2.73
2023-04-12T01:17:18.480Z,3.37
2023-04-12T01:19:55.820Z,2.97
2023-04-12T01:22:30.044Z,3.27
2023-04-12T01:25:04.297Z,3.40
2023-04-12T01:27:39.027Z,3.70
2023-04-12T01:30:07.921Z,3.50
2023-04-12T01:32:35.665Z,3.10
2023-04-12T01:35:05.143Z,3.00
2023-04-12T01:37:32.393Z,2.87
2023-04-12T01:39:59.672Z,3.70
2023-04-12T01:42:26.701Z,2.60
2023-04-12T01:44:57.587Z,2.83
2023-04-12T01:47:24.950Z,2.40
2023-04-12T01:49:56.932Z,2.23
2023-04-12T01:52:27.740Z,3.00
2023-04-12T01:54:57.998Z,2.20
2023-04-12T01:57:26.143Z,3.40
2023-04-12T01:59:54.345Z,3.07
2023-04-12T02:02:23.105Z,3.27
2023-04-12T02:04:50.564Z,2.93
2023-04-12T02:07:17.662Z,2.50
2023-04-12T02:09:45.492Z,2.50
2023-04-12T02:12:12.542Z,3.60
2023-04-12T02:14:39.663Z,2.47
2023-04-12T02:17:06.718Z,3.50
2023-04-12T02:19:35.162Z,3.17
2023-04-12T02:22:02.363Z,4.37
2023-04-12T02:24:29.780Z,2.50
2023-04-12T02:26:58.435Z,2.30
2023-04-12T02:29:25.501Z,2.70
2023-04-12T02:31:52.634Z,2.33
2023-04-12T02:34:20.931Z,2.57
2023-04-12T02:36:55.807Z,3.00
2023-04-12T02:39:22.950Z,2.37
2023-04-12T02:41:52.093Z,2.53
2023-04-12T02:44:19.158Z,2.80
2023-04-12T02:46:57.736Z,2.57
2023-04-12T02:49:24.824Z,2.90
2023-04-12T02:51:52.668Z,3.50
2023-04-12T02:54:25.769Z,3.30
2023-04-12T02:56:55.760Z,2.70
2023-04-12T02:59:38.499Z,2.50
2023-04-12T03:02:12.714Z,1.97
2023-04-12T03:04:40.159Z,2.17
2023-04-12T03:07:12.570Z,2.10
2023-04-12T03:09:47.791Z,2.63
2023-04-12T03:12:16.355Z,2.40
2023-04-12T03:14:53.730Z,2.30
2023-04-12T03:17:24.329Z,3.00
2023-04-12T03:19:53.243Z,2.70
2023-04-12T03:22:21.275Z,3.10
2023-04-12T03:24:53.878Z,2.03
2023-04-12T03:27:22.246Z,3.10
2023-04-12T03:29:52.748Z,2.67
2023-04-12T03:32:23.021Z,2.40
2023-04-12T03:34:50.312Z,2.17
2023-04-12T03:37:23.622Z,2.40
2023-04-12T03:39:51.004Z,2.60
2023-04-12T03:42:32.842Z,2.30
2023-04-12T03:45:08.020Z,2.23
2023-04-12T03:47:35.199Z,2.57
2023-04-12T03:50:11.514Z,2.20
2023-04-12T03:52:39.901Z,1.97
2023-04-12T03:55:08.370Z,2.60
2023-04-12T03:57:38.012Z,2.00
2023-04-12T04:00:07.300Z,2.00
2023-04-12T04:02:45.341Z,2.43
2023-04-12T04:05:12.728Z,1.70
2023-04-12T04:07:40.117Z,2.07
2023-04-12T04:10:07.711Z,2.10
2023-04-12T04:12:39.826Z,2.10
2023-04-12T04:15:10.697Z,2.10
2023-04-12T04:17:37.806Z,2.47
2023-04-12T04:20:05.707Z,2.17
2023-04-12T04:22:34.934Z,2.13
2023-04-12T04:25:04.397Z,2.30
2023-04-12T04:27:34.615Z,1.90
2023-04-12T04:30:04.535Z,2.53
2023-04-12T04:32:31.696Z,2.63
2023-04-12T04:34:59.023Z,2.50
2023-04-12T04:37:31.507Z,1.97
2023-04-12T04:39:59.329Z,2.60
2023-04-12T04:42:26.539Z,2.63
2023-04-12T04:45:03.523Z,2.47
2023-04-12T04:47:36.007Z,2.87
2023-04-12T04:50:03.255Z,2.50
2023-04-12T04:52:30.537Z,2.33
2023-04-12T04:55:03.892Z,3.20
2023-04-12T04:57:36.349Z,2.63
2023-04-12T05:00:05.973Z,3.00
2023-04-12T05:02:34.876Z,2.73
2023-04-12T05:05:02.152Z,2.70
2023-04-12T05:07:29.245Z,3.80
2023-04-12T05:09:56.370Z,3.30
2023-04-12T05:12:23.581Z,2.70
2023-04-12T05:15:08.563Z,2.87
2023-04-12T05:17:40.006Z,2.80
2023-04-12T05:20:07.645Z,2.83
2023-04-12T05:22:35.110Z,2.57
2023-04-12T05:25:02.288Z,2.80
2023-04-12T05:27:32.183Z,3.50
2023-04-12T05:30:00.475Z,2.90
2023-04-12T05:32:27.569Z,2.93
2023-04-12T05:34:56.546Z,3.23
2023-04-12T05:37:24.119Z,3.17
2023-04-12T05:39:51.191Z,3.10
2023-04-12T05:42:19.348Z,3.33
2023-04-12T05:44:48.602Z,2.83
2023-04-12T05:47:17.083Z,3.37
2023-04-12T05:49:44.328Z,4.63
2023-04-12T05:52:13.828Z,3.50
2023-04-12T05:54:41.078Z,3.63
2023-04-12T05:57:12.312Z,2.67
2023-04-12T05:59:39.371Z,2.80
2023-04-12T06:02:06.534Z,2.97
2023-04-12T06:04:48.739Z,3.10
2023-04-12T06:07:19.099Z,3.67
2023-04-12T06:09:46.150Z,2.53
2023-04-12T06:12:13.327Z,2.97
2023-04-12T06:14:40.535Z,3.63
2023-04-12T06:17:08.566Z,2.90
2023-04-12T06:19:35.654Z,3.00
2023-04-12T06:22:02.775Z,2.90
2023-04-12T06:24:32.779Z,3.80
2023-04-12T06:26:59.879Z,3.50
2023-04-12T06:29:27.104Z,2.70
2023-04-12T06:31:54.180Z,2.80
2023-04-12T06:34:21.731Z,3.13
2023-04-12T06:36:49.751Z,3.23
2023-04-12T06:39:17.044Z,3.13
2023-04-12T06:41:45.521Z,2.83
2023-04-12T06:44:12.663Z,3.03
2023-04-12T06:46:39.793Z,2.87
2023-04-12T06:49:06.832Z,3.10
2023-04-12T06:51:34.122Z,3.17
2023-04-12T06:54:01.172Z,3.60
2023-04-12T06:56:28.246Z,3.03
2023-04-12T06:58:57.303Z,3.37
2023-04-12T07:01:24.626Z,2.93
2023-04-12T07:03:51.858Z,3.47
2023-04-12T07:06:25.251Z,4.17
2023-04-12T07:08:53.131Z,3.20
2023-04-12T07:11:21.822Z,3.30
2023-04-12T07:13:49.213Z,4.03
2023-04-12T07:16:17.654Z,3.20
2023-04-12T07:18:44.774Z,3.43
2023-04-12T07:21:11.909Z,2.60
2023-04-12T07:23:39.000Z,3.50
2023-04-12T07:26:06.215Z,3.67
2023-04-12T07:28:33.360Z,3.80
2023-04-12T07:31:00.399Z,3.00
2023-04-12T07:33:28.869Z,3.20
2023-04-12T07:35:56.001Z,3.00
2023-04-12T07:38:23.066Z,2.47
2023-04-12T07:40:50.298Z,2.70
2023-04-12T07:43:17.451Z,2.90
2023-04-12T07:45:44.531Z,2.60
2023-04-12T07:48:11.719Z,2.80
2023-04-12T07:50:40.060Z,2.93
2023-04-12T07:53:21.989Z,3.07
2023-04-12T07:55:49.461Z,2.90
2023-04-12T07:58:16.844Z,3.27
2023-04-12T08:00:43.989Z,2.90
2023-04-12T08:03:12.327Z,2.87
2023-04-12T08:05:41.042Z,2.97
2023-04-12T08:08:08.418Z,2.70
2023-04-12T08:10:35.614Z,2.67
2023-04-12T08:13:02.754Z,2.50
2023-04-12T08:15:29.975Z,3.37
2023-04-12T08:17:57.027Z,2.87
2023-04-12T08:20:24.119Z,2.90
2023-04-12T08:22:52.535Z,2.70
2023-04-12T08:25:19.667Z,3.30
2023-04-12T08:27:46.763Z,3.30
2023-04-12T08:30:14.206Z,3.50
2023-04-12T08:32:41.268Z,3.83
2023-04-12T08:35:08.816Z,3.97
2023-04-12T08:37:36.017Z,3.40
2023-04-12T08:40:06.205Z,4.03
2023-04-12T08:42:34.139Z,3.23
2023-04-12T08:45:04.974Z,3.50
2023-04-12T08:47:33.066Z,3.70
2023-04-12T08:50:01.333Z,4.10
2023-04-12T08:52:28.436Z,3.73
2023-04-12T08:54:55.641Z,2.97
2023-04-12T08:57:24.117Z,3.20
2023-04-12T08:59:52.808Z,3.80
2023-04-12T09:02:19.978Z,3.43
2023-04-12T09:04:50.641Z,3.33
2023-04-12T09:07:17.952Z,3.47
2023-04-12T09:09:45.426Z,3.00
2023-04-12T09:12:12.769Z,3.27
2023-04-12T09:14:41.651Z,3.97
2023-04-12T09:17:21.452Z,3.37
2023-04-12T09:19:48.609Z,3.57
2023-04-12T09:22:15.634Z,3.87
2023-04-12T09:24:46.390Z,3.37
2023-04-12T09:27:13.513Z,3.23
2023-04-12T09:29:41.998Z,3.30
2023-04-12T09:32:09.696Z,3.03
2023-04-12T09:34:37.067Z,3.20
2023-04-12T09:37:13.062Z,3.23
2023-04-12T09:39:40.692Z,3.27
2023-04-12T09:42:18.061Z,3.20
2023-04-12T09:44:53.953Z,2.97
2023-04-12T09:47:21.156Z,3.10
2023-04-12T09:49:48.489Z,3.20
2023-04-12T09:52:15.548Z,3.20
2023-04-12T09:54:43.405Z,3.67
2023-04-12T09:57:10.797Z,5.80
2023-04-12T09:59:38.966Z,3.67
2023-04-12T10:02:11.622Z,3.73
2023-04-12T10:04:40.287Z,3.30
2023-04-12T10:07:07.662Z,4.40
2023-04-12T10:09:35.129Z,3.20
2023-04-12T10:12:03.106Z,4.07
2023-04-12T10:14:30.579Z,3.47
2023-04-12T10:16:58.420Z,4.20
2023-04-12T10:19:27.780Z,3.23
2023-04-12T10:21:55.104Z,2.90
2023-04-12T10:24:22.462Z,2.87
2023-04-12T10:26:49.830Z,3.13
2023-04-12T10:29:23.534Z,3.70
2023-04-12T10:31:50.849Z,3.27
2023-04-12T10:34:17.939Z,3.70
2023-04-12T10:36:53.227Z,3.70
2023-04-12T10:39:35.023Z,3.50
2023-04-12T10:42:21.417Z,3.60
2023-04-12T10:44:48.583Z,3.20
2023-04-12T10:47:15.715Z,3.77
2023-04-12T10:50:02.898Z,3.60
2023-04-12T10:52:31.335Z,2.17
2023-04-12T10:54:58.483Z,2.03
2023-04-12T10:57:42.285Z,1.97
2023-04-12T11:00:09.933Z,1.47
2023-04-12T11:02:57.139Z,1.67
2023-04-12T11:05:24.491Z,1.80
2023-04-12T11:08:00.709Z,2.47
2023-04-12T11:10:59.539Z,2.40
2023-04-12T11:13:35.210Z,2.53
2023-04-12T11:16:02.581Z,3.10
2023-04-12T11:18:29.803Z,3.60
2023-04-12T11:20:58.701Z,4.00
2023-04-12T11:23:27.117Z,3.20
2023-04-12T11:25:54.224Z,3.53
2023-04-12T11:28:28.505Z,3.57
2023-04-12T11:30:57.103Z,3.53
2023-04-12T11:33:31.654Z,3.70
2023-04-12T11:35:58.719Z,4.40
2023-04-12T11:38:27.105Z,3.20
2023-04-12T11:40:54.158Z,3.00
2023-04-12T11:43:21.455Z,2.80
2023-04-12T11:45:48.850Z,3.80
2023-04-12T11:48:16.417Z,3.50
2023-04-12T11:50:43.648Z,3.00
2023-04-12T11:53:11.329Z,2.97
2023-04-12T11:55:39.853Z,2.67
2023-04-12T11:58:07.229Z,2.57
2023-04-12T12:00:34.305Z,2.80
2023-04-12T12:03:07.872Z,2.63
2023-04-12T12:05:37.661Z,3.30
2023-04-12T12:08:05.152Z,2.93
2023-04-12T12:10:46.318Z,2.53
2023-04-12T12:13:20.586Z,2.73
2023-04-12T12:15:47.688Z,3.00
2023-04-12T12:18:14.842Z,3.00
2023-04-12T12:20:42.584Z,2.57
2023-04-12T12:23:09.677Z,2.70
2023-04-12T12:25:36.808Z,2.50
2023-04-12T12:28:04.064Z,2.40
2023-04-12T12:30:32.470Z,2.13
2023-04-12T12:32:59.581Z,2.87
2023-04-12T12:35:26.736Z,2.93
2023-04-12T12:37:54.718Z,2.50
2023-04-12T12:40:28.971Z,2.87
2023-04-12T12:42:56.680Z,2.47
2023-04-12T12:45:24.414Z,2.77
2023-04-12T12:47:53.501Z,3.47
2023-04-12T12:50:24.513Z,2.70
2023-04-12T12:52:52.008Z,3.20
2023-04-12T12:55:19.480Z,3.03
2023-04-12T12:58:01.747Z,2.70
2023-04-12T13:00:33.613Z,3.13
2023-04-12T13:03:02.333Z,3.30
2023-04-12T13:05:29.976Z,3.20
2023-04-12T13:07:57.110Z,2.10
2023-04-12T13:10:24.306Z,3.27
2023-04-12T13:12:51.433Z,2.60
2023-04-12T13:15:23.180Z,2.67
2023-04-12T13:17:52.490Z,2.53
2023-04-12T13:20:21.119Z,3.30
2023-04-12T13:22:48.388Z,2.67
2023-04-12T13:25:15.599Z,2.57
2023-04-12T13:27:42.778Z,2.63
2023-04-12T13:30:10.406Z,2.67
2023-04-12T13:32:37.846Z,3.37
2023-04-12T13:35:05.487Z,3.50
2023-04-12T13:37:34.238Z,2.70
2023-04-12T13:40:01.472Z,3.40
2023-04-12T13:42:28.761Z,2.70
2023-04-12T13:44:56.091Z,2.70
2023-04-12T13:47:23.232Z,2.73
2023-04-12T13:49:50.572Z,2.70
2023-04-12T13:52:17.831Z,2.37
2023-04-12T13:54:46.713Z,2.40
2023-04-12T13:57:13.914Z,3.23
2023-04-12T13:59:41.031Z,3.40
2023-04-12T14:02:08.379Z,3.50
2023-04-12T14:04:35.509Z,3.27
2023-04-12T14:07:02.597Z,2.70
2023-04-12T14:09:30.590Z,3.40
2023-04-12T14:11:59.670Z,2.40
2023-04-12T14:14:27.092Z,2.43
2023-04-12T14:16:55.059Z,1.00
2023-04-12T14:19:22.152Z,0.93
2023-04-12T14:21:49.395Z,1.13
2023-04-12T14:24:16.787Z,1.50
2023-04-12T14:26:43.862Z,1.77
2023-04-12T14:29:12.270Z,1.17
2023-04-12T14:31:39.659Z,1.63
2023-04-12T14:34:06.992Z,1.70
2023-04-12T14:36:34.076Z,1.50
2023-04-12T14:39:01.485Z,1.60
2023-04-12T14:41:28.746Z,1.50
2023-04-12T14:43:56.053Z,1.70
2023-04-12T14:46:24.689Z,1.70
2023-04-12T14:48:51.805Z,1.90
2023-04-12T14:51:18.842Z,2.27
2023-04-12T14:53:46.013Z,1.70
2023-04-12T14:56:23.302Z,1.67
2023-04-12T14:58:51.615Z,1.40
2023-04-12T15:01:18.745Z,1.70
2023-04-12T15:03:47.354Z,2.93
2023-04-12T15:06:14.578Z,1.77
2023-04-12T15:08:41.656Z,1.57
2023-04-12T15:11:08.984Z,1.93
2023-04-12T15:13:36.826Z,1.50
2023-04-12T15:16:03.893Z,2.07
2023-04-12T15:18:31.086Z,2.40
2023-04-12T15:20:59.505Z,2.40
2023-04-12T15:23:26.584Z,2.20
2023-04-12T15:25:57.086Z,1.50
2023-04-12T15:28:24.116Z,1.87
2023-04-12T15:30:51.166Z,1.00
2023-04-12T15:33:18.237Z,1.20
2023-04-12T15:35:45.257Z,1.00
2023-04-12T15:38:17.022Z,1.10
2023-04-12T15:40:46.222Z,1.37
2023-04-12T15:43:13.263Z,1.23
2023-04-12T15:45:41.141Z,1.10
2023-04-12T15:48:08.196Z,1.10
2023-04-12T15:50:35.250Z,1.20
2023-04-12T15:53:02.278Z,1.30
2023-04-12T15:55:30.712Z,1.33
2023-04-12T15:57:57.757Z,1.63
2023-04-12T16:00:25.100Z,1.20
2023-04-12T16:02:52.361Z,1.43
2023-04-12T16:05:20.684Z,1.50
2023-04-12T16:07:47.819Z,1.33
2023-04-12T16:10:14.832Z,1.00
2023-04-12T16:12:43.208Z,1.53
2023-04-12T16:15:10.670Z,1.17
2023-04-12T16:17:37.790Z,1.23
2023-04-12T16:20:05.215Z,1.20
2023-04-12T16:22:32.246Z,1.40
2023-04-12T16:24:59.285Z,1.50
2023-04-12T16:27:26.368Z,1.70
2023-04-12T16:29:54.742Z,1.30
2023-04-12T16:32:21.869Z,1.30
2023-04-12T16:34:48.999Z,1.20
2023-04-12T16:37:16.066Z,1.33
2023-04-12T16:39:43.138Z,1.03
2023-04-12T16:42:10.146Z,1.40
2023-04-12T16:44:37.187Z,1.47
2023-04-12T16:47:05.667Z,1.13
2023-04-12T16:49:32.772Z,1.20
2023-04-12T16:51:59.774Z,1.00
2023-04-12T16:54:26.844Z,1.20
2023-04-12T16:56:53.900Z,1.00
2023-04-12T16:59:21.012Z,1.00
2023-04-12T17:01:48.122Z,1.30
2023-04-12T17:04:16.635Z,1.30
2023-04-12T17:06:43.747Z,1.20
2023-04-12T17:09:10.867Z,1.27
2023-04-12T17:11:37.922Z,0.90
2023-04-12T17:14:05.027Z,1.00
2023-04-12T17:16:32.131Z,1.77
2023-04-12T17:18:59.501Z,1.63
2023-04-12T17:21:28.473Z,1.20
2023-04-12T17:23:55.598Z,1.37
2023-04-12T17:26:23.010Z,1.50
2023-04-12T17:28:50.219Z,1.77
2023-04-12T17:31:17.294Z,1.20
2023-04-12T17:33:44.440Z,4.03
2023-04-12T17:36:11.804Z,1.27
2023-04-12T17:38:40.356Z,1.40
2023-04-12T17:41:07.572Z,1.60
2023-04-12T17:43:34.637Z,1.37
2023-04-12T17:46:01.838Z,1.37
2023-04-12T17:48:28.931Z,1.50
2023-04-12T17:50:55.970Z,1.20
2023-04-12T17:53:23.046Z,1.00
2023-04-12T17:55:51.421Z,1.90
2023-04-12T17:58:18.461Z,1.67
2023-04-12T18:00:45.471Z,1.50
2023-04-12T18:03:12.613Z,1.50
2023-04-12T18:05:39.723Z,1.53
2023-04-12T18:08:06.864Z,1.40
2023-04-12T18:10:33.857Z,1.43
2023-04-12T18:13:02.242Z,1.20
2023-04-12T18:15:29.384Z,1.30
2023-04-12T18:17:56.506Z,1.23
2023-04-12T18:20:23.608Z,1.60
2023-04-12T18:22:50.700Z,1.33
2023-04-12T18:25:17.776Z,1.80
2023-04-12T18:27:46.622Z,1.73
2023-04-12T18:30:15.102Z,1.37
2023-04-12T18:32:42.169Z,1.20
2023-04-12T18:35:09.384Z,1.50
2023-04-12T18:37:36.407Z,1.50
2023-04-12T18:40:03.532Z,2.10
2023-04-12T18:42:30.614Z,1.70
2023-04-12T18:44:57.645Z,1.60
2023-04-12T18:47:27.058Z,1.97
2023-04-12T18:49:55.590Z,1.63
2023-04-12T18:52:22.629Z,1.60
2023-04-12T18:54:49.767Z,1.70
2023-04-12T18:57:16.845Z,2.27
2023-04-12T18:59:43.911Z,2.20
2023-04-12T19:02:10.995Z,1.50
2023-04-12T19:04:38.044Z,2.30
2023-04-12T19:07:06.548Z,1.63
2023-04-12T19:09:33.615Z,1.67
2023-04-12T19:12:00.699Z,1.07
2023-04-12T19:14:27.763Z,1.27
2023-04-12T19:16:54.781Z,2.00
2023-04-12T19:19:21.834Z,0.80
2023-04-12T19:21:49.015Z,0.90
2023-04-12T19:24:17.446Z,0.97
2023-04-12T19:26:44.570Z,1.13
2023-04-12T19:29:11.708Z,1.10
2023-04-12T19:31:38.847Z,1.60
2023-04-12T19:34:05.994Z,1.53
2023-04-12T19:36:33.059Z,3.33
2023-04-12T19:39:00.197Z,1.70
2023-04-12T19:41:28.679Z,1.77
2023-04-12T19:43:56.233Z,1.27
2023-04-12T19:46:23.418Z,1.40
2023-04-12T19:48:50.505Z,1.53
2023-04-12T19:51:17.678Z,1.27
2023-04-12T19:53:44.879Z,1.10
2023-04-12T19:56:12.113Z,1.77
2023-04-12T19:58:40.486Z,1.27
2023-04-12T20:01:07.570Z,1.23
2023-04-12T20:03:34.700Z,1.33
2023-04-12T20:06:01.768Z,1.67
2023-04-12T20:08:28.874Z,1.20
2023-04-12T20:10:55.993Z,1.30
2023-04-12T20:13:23.041Z,1.20
2023-04-12T20:15:51.461Z,1.37
2023-04-12T20:18:18.506Z,1.17
2023-04-12T20:20:45.641Z,1.57
2023-04-12T20:23:12.713Z,1.63
2023-04-12T20:25:39.812Z,1.53
2023-04-12T20:28:06.903Z,1.57
2023-04-12T20:30:33.908Z,1.47
2023-04-12T20:33:02.417Z,1.87
2023-04-12T20:35:29.496Z,1.27
2023-04-12T20:37:56.543Z,1.23
2023-04-12T20:40:23.587Z,1.70
2023-04-12T20:42:50.622Z,2.30
2023-04-12T20:45:17.720Z,1.53
2023-04-12T20:47:44.882Z,1.77
2023-04-12T20:50:13.356Z,1.77
2023-04-12T20:52:40.408Z,1.77
2023-04-12T20:55:07.730Z,2.10
2023-04-12T20:57:34.801Z,2.07
2023-04-12T21:00:01.832Z,2.33
2023-04-12T21:02:29.194Z,2.43
2023-04-12T21:04:58.182Z,2.00
2023-04-12T21:07:27.758Z,2.50
2023-04-12T21:09:54.817Z,2.70
2023-04-12T21:12:21.904Z,2.90
2023-04-12T21:14:49.001Z,2.87
2023-04-12T21:17:16.121Z,2.63
2023-04-12T21:19:43.228Z,2.50
2023-04-12T21:22:10.322Z,2.90
2023-04-12T21:24:38.698Z,2.70
2023-04-12T21:27:06.289Z,2.77
2023-04-12T21:29:33.879Z,2.50
2023-04-12T21:32:01.112Z,2.30
2023-04-12T21:34:28.189Z,3.00
2023-04-12T21:36:55.225Z,2.83
2023-04-12T21:39:22.256Z,2.10
2023-04-12T21:41:50.654Z,2.30
2023-04-12T21:44:17.695Z,1.63
2023-04-12T21:46:44.740Z,1.73
2023-04-12T21:49:11.807Z,2.30
2023-04-12T21:51:38.895Z,1.30
2023-04-12T21:54:06.063Z,1.60
2023-04-12T21:56:33.144Z,1.40
2023-04-12T21:59:01.531Z,1.20
2023-04-12T22:01:28.629Z,1.20
2023-04-12T22:03:55.826Z,1.00
2023-04-12T22:06:23.039Z,1.37
2023-04-12T22:08:50.142Z,1.40
2023-04-12T22:11:17.335Z,1.63
2023-04-12T22:13:44.378Z,1.50
2023-04-12T22:16:12.917Z,1.20
2023-04-12T22:18:39.984Z,1.10
2023-04-12T22:21:07.321Z,1.20
2023-04-12T22:23:34.419Z,1.00
2023-04-12T22:26:01.469Z,1.13
2023-04-12T22:28:28.520Z,1.30
2023-04-12T22:30:55.605Z,1.07
2023-04-12T22:33:24.013Z,1.10
2023-04-12T22:35:51.048Z,1.20
2023-04-12T22:38:18.111Z,1.10
2023-04-12T22:40:46.249Z,1.10
2023-04-12T22:43:13.503Z,1.03
2023-04-12T22:45:40.531Z,1.03
2023-04-12T22:48:07.637Z,3.67
2023-04-12T22:50:36.054Z,1.20
2023-04-12T22:53:03.128Z,1.13
2023-04-12T22:55:30.266Z,1.73
2023-04-12T22:57:57.336Z,1.50
2023-04-12T23:00:24.422Z,1.37
2023-04-12T23:02:51.825Z,1.00
2023-04-12T23:05:19.115Z,1.20
2023-04-12T23:07:47.627Z,1.50
2023-04-12T23:10:14.692Z,1.10
2023-04-12T23:12:41.789Z,0.93
2023-04-12T23:15:09.508Z,1.37
2023-04-12T23:17:36.597Z,1.03
2023-04-12T23:20:03.822Z,1.17
2023-04-12T23:22:37.652Z,1.50
2023-04-12T23:25:16.325Z,1.40
2023-04-12T23:27:43.419Z,1.80
2023-04-12T23:30:10.909Z,1.23
2023-04-12T23:32:38.006Z,1.30
2023-04-12T23:35:05.466Z,1.40
2023-04-12T23:37:32.580Z,1.20
2023-04-12T23:39:59.648Z,1.30
2023-04-12T23:42:28.038Z,1.27
2023-04-12T23:44:55.159Z,1.20
2023-04-12T23:47:22.304Z,1.10
2023-04-12T23:49:49.418Z,1.40
2023-04-12T23:52:16.659Z,1.20
2023-04-12T23:54:43.721Z,1.50
2023-04-12T23:57:10.822Z,1.07
2023-04-12T23:59:39.204Z,1.40
